sensor_id;sensor_type;location;lat;lon;timestamp;pressure;altitude;pressure_sealevel;temperature;humidity
73842;BME280;62184;52.006;5.924;2023-08-01T00:01:32;99080.25;;;22.34;63.26
73842;BME280;62184;52.006;5.924;2023-08-01T00:03:59;99091.75;;;22.28;64.59
73842;BME280;62184;52.006;5.924;2023-08-01T00:06:28;99091.94;;;22.26;64.50
73842;BME280;62184;52.006;5.924;2023-08-01T00:08:54;99104.66;;;22.26;63.92
73842;BME280;62184;52.006;5.924;2023-08-01T00:11:21;99089.09;;;22.18;63.81
73842;BME280;62184;52.006;5.924;2023-08-01T00:13:47;99092.06;;;22.07;63.36
73842;BME280;62184;52.006;5.924;2023-08-01T00:16:14;99098.25;;;21.99;63.65
73842;BME280;62184;52.006;5.924;2023-08-01T00:18:40;99086.69;;;21.97;63.23
73842;BME280;62184;52.006;5.924;2023-08-01T00:21:07;99096.56;;;21.98;63.66
73842;BME280;62184;52.006;5.924;2023-08-01T00:23:36;99083.47;;;22.02;63.37
73842;BME280;62184;52.006;5.924;2023-08-01T00:26:02;99093.97;;;21.97;63.17
73842;BME280;62184;52.006;5.924;2023-08-01T00:28:29;99078.53;;;21.97;62.98
73842;BME280;62184;52.006;5.924;2023-08-01T00:31:02;99082.81;;;22.00;63.03
73842;BME280;62184;52.006;5.924;2023-08-01T00:33:29;99070.59;;;22.04;62.55
73842;BME280;62184;52.006;5.924;2023-08-01T00:35:55;99068.09;;;22.11;63.21
73842;BME280;62184;52.006;5.924;2023-08-01T00:38:22;99072.31;;;22.05;62.44
73842;BME280;62184;52.006;5.924;2023-08-01T00:40:51;99059.34;;;21.99;62.65
73842;BME280;62184;52.006;5.924;2023-08-01T00:43:17;99047.53;;;21.90;62.99
73842;BME280;62184;52.006;5.924;2023-08-01T00:45:45;99050.53;;;21.87;63.01
73842;BME280;62184;52.006;5.924;2023-08-01T00:48:12;99049.69;;;21.87;63.43
73842;BME280;62184;52.006;5.924;2023-08-01T00:50:39;99051.97;;;21.91;63.56
73842;BME280;62184;52.006;5.924;2023-08-01T00:53:06;99046.38;;;21.93;62.85
73842;BME280;62184;52.006;5.924;2023-08-01T00:55:34;99043.09;;;21.89;63.51
73842;BME280;62184;52.006;5.924;2023-08-01T00:58:04;99045.81;;;21.89;63.52
73842;BME280;62184;52.006;5.924;2023-08-01T01:00:30;99043.09;;;21.89;63.09
73842;BME280;62184;52.006;5.924;2023-08-01T01:02:57;99038.22;;;21.93;63.58
73842;BME280;62184;52.006;5.924;2023-08-01T01:05:24;99034.47;;;21.94;63.01
73842;BME280;62184;52.006;5.924;2023-08-01T01:07:53;99038.03;;;21.94;63.21
73842;BME280;62184;52.006;5.924;2023-08-01T01:10:21;99033.47;;;21.95;63.58
73842;BME280;62184;52.006;5.924;2023-08-01T01:12:47;99023.59;;;21.94;63.69
73842;BME280;62184;52.006;5.924;2023-08-01T01:15:16;99032.31;;;21.97;62.77
73842;BME280;62184;52.006;5.924;2023-08-01T01:17:43;99027.78;;;21.88;63.57
73842;BME280;62184;52.006;5.924;2023-08-01T01:20:10;99030.34;;;21.90;63.41
73842;BME280;62184;52.006;5.924;2023-08-01T01:22:40;99037.00;;;21.78;61.89
73842;BME280;62184;52.006;5.924;2023-08-01T01:25:08;99039.22;;;21.64;63.00
73842;BME280;62184;52.006;5.924;2023-08-01T01:27:38;99030.13;;;21.56;63.19
73842;BME280;62184;52.006;5.924;2023-08-01T01:30:06;99034.84;;;21.54;62.86
73842;BME280;62184;52.006;5.924;2023-08-01T01:32:34;99033.28;;;21.51;63.35
73842;BME280;62184;52.006;5.924;2023-08-01T01:35:02;99025.13;;;21.51;63.28
73842;BME280;62184;52.006;5.924;2023-08-01T01:37:30;99023.97;;;21.54;63.47
73842;BME280;62184;52.006;5.924;2023-08-01T01:39:59;99038.41;;;21.54;63.10
73842;BME280;62184;52.006;5.924;2023-08-01T01:42:25;99029.56;;;21.52;63.77
73842;BME280;62184;52.006;5.924;2023-08-01T01:44:52;99025.84;;;21.53;63.09
73842;BME280;62184;52.006;5.924;2023-08-01T01:47:18;99023.44;;;21.50;63.12
73842;BME280;62184;52.006;5.924;2023-08-01T01:49:45;99021.09;;;21.55;63.43
73842;BME280;62184;52.006;5.924;2023-08-01T01:52:11;99023.81;;;21.55;63.40
73842;BME280;62184;52.006;5.924;2023-08-01T01:54:37;99022.41;;;21.51;62.67
73842;BME280;62184;52.006;5.924;2023-08-01T01:57:07;99014.00;;;21.45;62.80
73842;BME280;62184;52.006;5.924;2023-08-01T01:59:33;99012.47;;;21.42;63.08
73842;BME280;62184;52.006;5.924;2023-08-01T02:02:00;99011.78;;;21.40;63.23
73842;BME280;62184;52.006;5.924;2023-08-01T02:04:26;99011.06;;;21.38;63.27
73842;BME280;62184;52.006;5.924;2023-08-01T02:06:53;99010.66;;;21.33;62.94
73842;BME280;62184;52.006;5.924;2023-08-01T02:09:19;99006.00;;;21.25;62.79
73842;BME280;62184;52.006;5.924;2023-08-01T02:11:46;99002.00;;;21.20;63.14
73842;BME280;62184;52.006;5.924;2023-08-01T02:14:15;99006.19;;;21.14;63.29
73842;BME280;62184;52.006;5.924;2023-08-01T02:16:42;99010.75;;;21.14;62.91
73842;BME280;62184;52.006;5.924;2023-08-01T02:19:08;99004.94;;;21.09;62.94
73842;BME280;62184;52.006;5.924;2023-08-01T02:21:34;99006.22;;;21.05;63.01
73842;BME280;62184;52.006;5.924;2023-08-01T02:24:01;98998.06;;;21.05;63.24
73842;BME280;62184;52.006;5.924;2023-08-01T02:26:28;99002.66;;;21.04;62.70
73842;BME280;62184;52.006;5.924;2023-08-01T02:28:54;99003.66;;;21.03;63.33
73842;BME280;62184;52.006;5.924;2023-08-01T02:31:23;99000.78;;;21.05;62.73
73842;BME280;62184;52.006;5.924;2023-08-01T02:33:50;98996.97;;;20.98;62.75
73842;BME280;62184;52.006;5.924;2023-08-01T02:36:16;98997.06;;;20.96;63.07
73842;BME280;62184;52.006;5.924;2023-08-01T02:38:43;98998.53;;;21.00;62.82
73842;BME280;62184;52.006;5.924;2023-08-01T02:41:10;98998.81;;;20.97;63.17
73842;BME280;62184;52.006;5.924;2023-08-01T02:43:36;99004.34;;;20.95;63.30
73842;BME280;62184;52.006;5.924;2023-08-01T02:46:02;98999.94;;;20.94;63.16
73842;BME280;62184;52.006;5.924;2023-08-01T02:48:32;98993.50;;;20.95;63.00
73842;BME280;62184;52.006;5.924;2023-08-01T02:50:58;99000.06;;;20.93;63.19
73842;BME280;62184;52.006;5.924;2023-08-01T02:53:25;98993.97;;;20.91;62.88
73842;BME280;62184;52.006;5.924;2023-08-01T02:55:51;99002.25;;;20.89;63.02
73842;BME280;62184;52.006;5.924;2023-08-01T02:58:17;99005.09;;;20.88;62.94
73842;BME280;62184;52.006;5.924;2023-08-01T03:00:44;98998.81;;;20.87;63.08
73842;BME280;62184;52.006;5.924;2023-08-01T03:03:10;99005.09;;;20.88;63.35
73842;BME280;62184;52.006;5.924;2023-08-01T03:05:40;99000.53;;;20.88;62.84
73842;BME280;62184;52.006;5.924;2023-08-01T03:08:06;99006.97;;;20.87;62.88
73842;BME280;62184;52.006;5.924;2023-08-01T03:10:32;99001.09;;;20.92;63.35
73842;BME280;62184;52.006;5.924;2023-08-01T03:12:59;99001.09;;;20.92;63.50
73842;BME280;62184;52.006;5.924;2023-08-01T03:15:26;98994.97;;;21.00;62.52
73842;BME280;62184;52.006;5.924;2023-08-01T03:17:53;98998.78;;;21.07;62.81
73842;BME280;62184;52.006;5.924;2023-08-01T03:20:19;98989.22;;;21.03;63.35
73842;BME280;62184;52.006;5.924;2023-08-01T03:22:48;98993.78;;;21.02;63.01
73842;BME280;62184;52.006;5.924;2023-08-01T03:25:15;98998.53;;;21.00;63.50
73842;BME280;62184;52.006;5.924;2023-08-01T03:27:42;99000.63;;;21.06;63.45
73842;BME280;62184;52.006;5.924;2023-08-01T03:30:09;99002.47;;;21.15;62.90
73842;BME280;62184;52.006;5.924;2023-08-01T03:32:36;99002.22;;;21.09;63.12
73842;BME280;62184;52.006;5.924;2023-08-01T03:35:03;99004.66;;;21.02;63.08
73842;BME280;62184;52.006;5.924;2023-08-01T03:37:30;98995.34;;;20.95;63.04
73842;BME280;62184;52.006;5.924;2023-08-01T03:40:00;99010.94;;;20.93;63.47
73842;BME280;62184;52.006;5.924;2023-08-01T03:42:26;98997.22;;;20.94;63.26
73842;BME280;62184;52.006;5.924;2023-08-01T03:44:53;99003.78;;;21.02;63.51
73842;BME280;62184;52.006;5.924;2023-08-01T03:47:19;98998.78;;;21.07;63.47
73842;BME280;62184;52.006;5.924;2023-08-01T03:49:45;99007.47;;;21.10;63.50
73842;BME280;62184;52.006;5.924;2023-08-01T03:52:12;99002.31;;;21.17;63.79
73842;BME280;62184;52.006;5.924;2023-08-01T03:54:38;98996.66;;;21.28;63.83
73842;BME280;62184;52.006;5.924;2023-08-01T03:57:07;99001.66;;;21.32;63.13
73842;BME280;62184;52.006;5.924;2023-08-01T03:59:34;99002.53;;;21.33;62.76
73842;BME280;62184;52.006;5.924;2023-08-01T04:02:00;99009.91;;;21.41;63.28
73842;BME280;62184;52.006;5.924;2023-08-01T04:04:27;99009.75;;;21.42;63.16
73842;BME280;62184;52.006;5.924;2023-08-01T04:06:53;99007.03;;;21.42;62.95
73842;BME280;62184;52.006;5.924;2023-08-01T04:09:20;99004.00;;;21.45;62.62
73842;BME280;62184;52.006;5.924;2023-08-01T04:11:46;99008.00;;;21.51;62.74
73842;BME280;62184;52.006;5.924;2023-08-01T04:14:15;99010.53;;;21.52;62.61
73842;BME280;62184;52.006;5.924;2023-08-01T04:16:42;99011.63;;;21.42;62.84
73842;BME280;62184;52.006;5.924;2023-08-01T04:19:08;99006.19;;;21.42;62.69
73842;BME280;62184;52.006;5.924;2023-08-01T04:21:35;99017.91;;;21.42;62.59
73842;BME280;62184;52.006;5.924;2023-08-01T04:24:01;99016.50;;;21.38;63.08
73842;BME280;62184;52.006;5.924;2023-08-01T04:26:28;99016.19;;;21.41;63.45
73842;BME280;62184;52.006;5.924;2023-08-01T04:28:54;99016.16;;;21.51;62.91
73842;BME280;62184;52.006;5.924;2023-08-01T04:31:23;99007.66;;;21.54;63.71
73842;BME280;62184;52.006;5.924;2023-08-01T04:33:50;99002.81;;;21.57;62.40
73842;BME280;62184;52.006;5.924;2023-08-01T04:36:16;99002.09;;;21.55;62.66
73842;BME280;62184;52.006;5.924;2023-08-01T04:38:43;99011.72;;;21.50;62.79
73842;BME280;62184;52.006;5.924;2023-08-01T04:41:09;99008.69;;;21.53;63.66
73842;BME280;62184;52.006;5.924;2023-08-01T04:43:36;99001.81;;;21.58;62.65
73842;BME280;62184;52.006;5.924;2023-08-01T04:46:02;98990.13;;;21.48;62.36
73842;BME280;62184;52.006;5.924;2023-08-01T04:48:31;99012.16;;;21.45;62.96
73842;BME280;62184;52.006;5.924;2023-08-01T04:50:58;99016.59;;;21.46;63.15
73842;BME280;62184;52.006;5.924;2023-08-01T04:53:24;99022.88;;;21.47;62.86
73842;BME280;62184;52.006;5.924;2023-08-01T04:55:51;99010.34;;;21.36;63.08
73842;BME280;62184;52.006;5.924;2023-08-01T04:58:17;99008.53;;;21.27;63.75
73842;BME280;62184;52.006;5.924;2023-08-01T05:00:44;99008.84;;;21.24;63.76
73842;BME280;62184;52.006;5.924;2023-08-01T05:03:10;99013.56;;;21.22;64.62
73842;BME280;62184;52.006;5.924;2023-08-01T05:05:39;99015.72;;;21.18;64.64
73842;BME280;62184;52.006;5.924;2023-08-01T05:08:06;99018.91;;;21.14;64.29
73842;BME280;62184;52.006;5.924;2023-08-01T05:10:32;99017.31;;;21.11;64.57
73842;BME280;62184;52.006;5.924;2023-08-01T05:12:59;99013.75;;;21.11;65.08
73842;BME280;62184;52.006;5.924;2023-08-01T05:15:25;99014.31;;;21.14;65.96
73842;BME280;62184;52.006;5.924;2023-08-01T05:17:52;99013.44;;;21.23;65.97
73842;BME280;62184;52.006;5.924;2023-08-01T05:20:19;99020.25;;;21.27;65.82
73842;BME280;62184;52.006;5.924;2023-08-01T05:22:48;99021.09;;;21.28;65.74
73842;BME280;62184;52.006;5.924;2023-08-01T05:25:14;99019.97;;;21.30;66.29
73842;BME280;62184;52.006;5.924;2023-08-01T05:27:41;99026.00;;;21.24;65.39
73842;BME280;62184;52.006;5.924;2023-08-01T05:30:09;99036.25;;;21.30;66.42
73842;BME280;62184;52.006;5.924;2023-08-01T05:32:36;99031.50;;;21.42;66.91
73842;BME280;62184;52.006;5.924;2023-08-01T05:35:03;99047.81;;;21.60;66.91
73842;BME280;62184;52.006;5.924;2023-08-01T05:37:30;99050.81;;;21.66;66.24
73842;BME280;62184;52.006;5.924;2023-08-01T05:39:59;99043.44;;;21.77;66.58
73842;BME280;62184;52.006;5.924;2023-08-01T05:42:26;99044.09;;;21.88;65.69
73842;BME280;62184;52.006;5.924;2023-08-01T05:44:52;99042.47;;;21.95;66.20
73842;BME280;62184;52.006;5.924;2023-08-01T05:47:19;99036.97;;;22.05;66.14
73842;BME280;62184;52.006;5.924;2023-08-01T05:49:45;99039.53;;;22.06;64.67
73842;BME280;62184;52.006;5.924;2023-08-01T05:52:12;99035.56;;;22.01;65.59
73842;BME280;62184;52.006;5.924;2023-08-01T05:54:38;99032.16;;;21.99;65.66
73842;BME280;62184;52.006;5.924;2023-08-01T05:57:08;99040.84;;;22.02;65.95
73842;BME280;62184;52.006;5.924;2023-08-01T05:59:34;99054.28;;;22.04;64.67
73842;BME280;62184;52.006;5.924;2023-08-01T06:02:01;99050.19;;;22.00;65.68
73842;BME280;62184;52.006;5.924;2023-08-01T06:04:27;99046.91;;;22.14;66.69
73842;BME280;62184;52.006;5.924;2023-08-01T06:06:54;99048.78;;;22.31;66.03
73842;BME280;62184;52.006;5.924;2023-08-01T06:09:20;99044.03;;;22.33;65.78
73842;BME280;62184;52.006;5.924;2023-08-01T06:11:47;99043.63;;;22.28;64.32
73842;BME280;62184;52.006;5.924;2023-08-01T06:14:16;99050.41;;;22.24;65.75
73842;BME280;62184;52.006;5.924;2023-08-01T06:16:43;99051.72;;;22.20;64.26
73842;BME280;62184;52.006;5.924;2023-08-01T06:19:09;99061.91;;;22.18;65.62
73842;BME280;62184;52.006;5.924;2023-08-01T06:21:36;99065.25;;;22.12;64.18
73842;BME280;62184;52.006;5.924;2023-08-01T06:24:03;99062.66;;;22.11;65.02
73842;BME280;62184;52.006;5.924;2023-08-01T06:26:30;99067.16;;;22.02;64.16
73842;BME280;62184;52.006;5.924;2023-08-01T06:28:56;99067.03;;;22.03;65.05
73842;BME280;62184;52.006;5.924;2023-08-01T06:31:25;99076.97;;;22.13;65.25
73842;BME280;62184;52.006;5.924;2023-08-01T06:33:52;99071.09;;;22.17;65.59
73842;BME280;62184;52.006;5.924;2023-08-01T06:36:18;99077.06;;;22.21;64.59
73842;BME280;62184;52.006;5.924;2023-08-01T06:38:45;99078.00;;;22.29;65.78
73842;BME280;62184;52.006;5.924;2023-08-01T06:41:11;99076.59;;;22.25;64.54
73842;BME280;62184;52.006;5.924;2023-08-01T06:43:38;99075.97;;;22.31;65.29
73842;BME280;62184;52.006;5.924;2023-08-01T06:46:04;99085.44;;;22.45;65.53
73842;BME280;62184;52.006;5.924;2023-08-01T06:48:35;99076.13;;;22.48;64.34
73842;BME280;62184;52.006;5.924;2023-08-01T06:51:04;99079.50;;;22.59;65.94
73842;BME280;62184;52.006;5.924;2023-08-01T06:53:30;99080.94;;;22.71;65.95
73842;BME280;62184;52.006;5.924;2023-08-01T06:55:57;99082.34;;;22.75;65.26
73842;BME280;62184;52.006;5.924;2023-08-01T06:58:23;99077.81;;;22.84;65.38
73842;BME280;62184;52.006;5.924;2023-08-01T07:00:50;99071.94;;;22.97;65.39
73842;BME280;62184;52.006;5.924;2023-08-01T07:03:16;99080.66;;;23.00;64.85
73842;BME280;62184;52.006;5.924;2023-08-01T07:05:45;99079.00;;;23.07;64.72
73842;BME280;62184;52.006;5.924;2023-08-01T07:08:12;99077.34;;;23.14;64.80
73842;BME280;62184;52.006;5.924;2023-08-01T07:10:38;99086.81;;;23.10;64.05
73842;BME280;62184;52.006;5.924;2023-08-01T07:13:05;99077.97;;;23.08;63.70
73842;BME280;62184;52.006;5.924;2023-08-01T07:15:32;99096.72;;;23.11;64.52
73842;BME280;62184;52.006;5.924;2023-08-01T07:17:59;99075.69;;;23.22;65.12
73842;BME280;62184;52.006;5.924;2023-08-01T07:20:26;99090.75;;;23.34;64.00
73842;BME280;62184;52.006;5.924;2023-08-01T07:22:55;99085.97;;;23.36;64.71
73842;BME280;62184;52.006;5.924;2023-08-01T07:25:22;99092.47;;;23.35;64.41
73842;BME280;62184;52.006;5.924;2023-08-01T07:27:48;99086.38;;;23.41;65.06
73842;BME280;62184;52.006;5.924;2023-08-01T07:30:15;99078.91;;;23.43;65.00
73842;BME280;62184;52.006;5.924;2023-08-01T07:32:41;99089.56;;;23.36;63.85
73842;BME280;62184;52.006;5.924;2023-08-01T07:35:09;99078.84;;;23.35;63.75
73842;BME280;62184;52.006;5.924;2023-08-01T07:37:35;99082.94;;;23.39;64.49
73842;BME280;62184;52.006;5.924;2023-08-01T07:40:05;99080.88;;;23.33;63.08
73842;BME280;62184;52.006;5.924;2023-08-01T07:42:32;99076.47;;;23.40;64.36
73842;BME280;62184;52.006;5.924;2023-08-01T07:44:59;99085.78;;;23.63;64.23
73842;BME280;62184;52.006;5.924;2023-08-01T07:47:25;99080.53;;;23.70;63.34
73842;BME280;62184;52.006;5.924;2023-08-01T07:49:52;99079.22;;;23.82;62.97
73842;BME280;62184;52.006;5.924;2023-08-01T07:52:19;99079.97;;;23.92;62.99
73842;BME280;62184;52.006;5.924;2023-08-01T07:54:46;99087.31;;;24.00;64.00
73842;BME280;62184;52.006;5.924;2023-08-01T07:57:15;99077.59;;;23.97;63.04
73842;BME280;62184;52.006;5.924;2023-08-01T07:59:41;99079.66;;;24.11;62.76
73842;BME280;62184;52.006;5.924;2023-08-01T08:02:07;99076.13;;;24.35;62.86
73842;BME280;62184;52.006;5.924;2023-08-01T08:04:34;99088.09;;;24.58;62.15
73842;BME280;62184;52.006;5.924;2023-08-01T08:07:00;99079.56;;;24.69;60.91
73842;BME280;62184;52.006;5.924;2023-08-01T08:09:27;99078.53;;;24.79;61.87
73842;BME280;62184;52.006;5.924;2023-08-01T08:11:53;99083.84;;;24.80;60.97
73842;BME280;62184;52.006;5.924;2023-08-01T08:14:22;99097.00;;;24.77;59.78
73842;BME280;62184;52.006;5.924;2023-08-01T08:16:49;99102.47;;;24.60;57.10
73842;BME280;62184;52.006;5.924;2023-08-01T08:19:16;99085.69;;;24.47;61.92
73842;BME280;62184;52.006;5.924;2023-08-01T08:21:42;99093.19;;;24.45;63.28
73842;BME280;62184;52.006;5.924;2023-08-01T08:24:09;99099.16;;;24.49;63.25
73842;BME280;62184;52.006;5.924;2023-08-01T08:26:36;99102.75;;;24.49;63.11
73842;BME280;62184;52.006;5.924;2023-08-01T08:29:03;99108.38;;;24.48;62.26
73842;BME280;62184;52.006;5.924;2023-08-01T08:31:32;99104.78;;;24.31;62.17
73842;BME280;62184;52.006;5.924;2023-08-01T08:33:59;99103.75;;;24.32;63.58
73842;BME280;62184;52.006;5.924;2023-08-01T08:36:25;99103.94;;;24.55;64.06
73842;BME280;62184;52.006;5.924;2023-08-01T08:38:52;99104.50;;;24.75;63.69
73842;BME280;62184;52.006;5.924;2023-08-01T08:41:21;99110.63;;;25.01;64.14
73842;BME280;62184;52.006;5.924;2023-08-01T08:43:52;99103.59;;;25.15;63.62
73842;BME280;62184;52.006;5.924;2023-08-01T08:46:23;99099.69;;;25.33;61.72
73842;BME280;62184;52.006;5.924;2023-08-01T08:48:59;99100.31;;;25.52;61.14
73842;BME280;62184;52.006;5.924;2023-08-01T08:51:26;99105.03;;;25.66;61.25
73842;BME280;62184;52.006;5.924;2023-08-01T08:53:56;99097.84;;;25.65;62.08
73842;BME280;62184;52.006;5.924;2023-08-01T08:56:23;99093.59;;;25.62;60.91
73842;BME280;62184;52.006;5.924;2023-08-01T08:58:50;99099.13;;;25.46;61.61
73842;BME280;62184;52.006;5.924;2023-08-01T09:01:17;99103.09;;;25.35;62.26
73842;BME280;62184;52.006;5.924;2023-08-01T09:03:44;99111.94;;;25.37;62.27
73842;BME280;62184;52.006;5.924;2023-08-01T09:06:15;99107.34;;;25.38;62.05
73842;BME280;62184;52.006;5.924;2023-08-01T09:08:47;99103.44;;;25.16;59.75
73842;BME280;62184;52.006;5.924;2023-08-01T09:11:17;99106.22;;;24.92;60.57
73842;BME280;62184;52.006;5.924;2023-08-01T09:13:43;99101.22;;;24.95;61.84
73842;BME280;62184;52.006;5.924;2023-08-01T09:16:11;99097.63;;;25.19;60.29
73842;BME280;62184;52.006;5.924;2023-08-01T09:18:47;99099.00;;;25.31;62.19
73842;BME280;62184;52.006;5.924;2023-08-01T09:21:20;99096.09;;;25.33;57.46
73842;BME280;62184;52.006;5.924;2023-08-01T09:23:48;99102.91;;;25.37;58.76
73842;BME280;62184;52.006;5.924;2023-08-01T09:26:14;99112.78;;;25.46;60.57
73842;BME280;62184;52.006;5.924;2023-08-01T09:28:41;99107.84;;;25.50;61.53
73842;BME280;62184;52.006;5.924;2023-08-01T09:31:09;99107.94;;;25.64;57.59
73842;BME280;62184;52.006;5.924;2023-08-01T09:33:39;99109.13;;;25.62;57.84
73842;BME280;62184;52.006;5.924;2023-08-01T09:36:07;99114.91;;;25.75;61.39
73842;BME280;62184;52.006;5.924;2023-08-01T09:38:37;99128.22;;;25.86;62.12
73842;BME280;62184;52.006;5.924;2023-08-01T09:41:04;99123.41;;;25.88;60.53
73842;BME280;62184;52.006;5.924;2023-08-01T09:43:34;99129.09;;;25.70;61.85
73842;BME280;62184;52.006;5.924;2023-08-01T09:46:01;99136.34;;;25.55;60.56
73842;BME280;62184;52.006;5.924;2023-08-01T09:48:29;99142.84;;;25.46;60.65
73842;BME280;62184;52.006;5.924;2023-08-01T09:51:06;99148.88;;;25.41;60.82
73842;BME280;62184;52.006;5.924;2023-08-01T09:53:33;99144.75;;;25.37;55.97
73842;BME280;62184;52.006;5.924;2023-08-01T09:56:03;99148.28;;;25.62;63.48
73842;BME280;62184;52.006;5.924;2023-08-01T09:58:32;99147.75;;;25.75;58.23
73842;BME280;62184;52.006;5.924;2023-08-01T10:01:00;99151.00;;;25.70;59.58
73842;BME280;62184;52.006;5.924;2023-08-01T10:03:29;99135.41;;;25.79;59.26
73842;BME280;62184;52.006;5.924;2023-08-01T10:05:56;99137.44;;;25.85;58.32
73842;BME280;62184;52.006;5.924;2023-08-01T10:08:25;99146.13;;;25.97;56.02
73842;BME280;62184;52.006;5.924;2023-08-01T10:10:52;99131.69;;;26.19;54.08
73842;BME280;62184;52.006;5.924;2023-08-01T10:13:23;99136.53;;;26.63;58.56
73842;BME280;62184;52.006;5.924;2023-08-01T10:15:50;99152.94;;;26.93;57.76
73842;BME280;62184;52.006;5.924;2023-08-01T10:18:17;99138.19;;;26.94;53.74
73842;BME280;62184;52.006;5.924;2023-08-01T10:20:44;99144.72;;;26.93;57.35
73842;BME280;62184;52.006;5.924;2023-08-01T10:23:13;99144.00;;;27.14;56.98
73842;BME280;62184;52.006;5.924;2023-08-01T10:25:40;99146.72;;;27.37;59.58
73842;BME280;62184;52.006;5.924;2023-08-01T10:28:07;99155.16;;;27.50;58.56
73842;BME280;62184;52.006;5.924;2023-08-01T10:30:37;99149.84;;;27.49;55.12
73842;BME280;62184;52.006;5.924;2023-08-01T10:33:03;99156.78;;;27.59;56.45
73842;BME280;62184;52.006;5.924;2023-08-01T10:35:33;99157.25;;;27.63;53.13
73842;BME280;62184;52.006;5.924;2023-08-01T10:38:04;99172.78;;;27.71;58.01
73842;BME280;62184;52.006;5.924;2023-08-01T10:40:39;99169.38;;;27.98;54.78
73842;BME280;62184;52.006;5.924;2023-08-01T10:43:18;99166.63;;;27.98;52.12
73842;BME280;62184;52.006;5.924;2023-08-01T10:45:48;99155.09;;;27.88;55.63
73842;BME280;62184;52.006;5.924;2023-08-01T10:48:25;99167.47;;;28.13;56.58
73842;BME280;62184;52.006;5.924;2023-08-01T10:50:54;99155.22;;;28.30;49.38
73842;BME280;62184;52.006;5.924;2023-08-01T10:53:21;99151.78;;;28.58;57.49
73842;BME280;62184;52.006;5.924;2023-08-01T10:55:47;99162.84;;;28.64;46.07
73842;BME280;62184;52.006;5.924;2023-08-01T10:58:15;99166.59;;;28.42;49.18
73842;BME280;62184;52.006;5.924;2023-08-01T11:00:42;99167.72;;;28.33;53.35
73842;BME280;62184;52.006;5.924;2023-08-01T11:03:11;99176.81;;;28.33;55.34
73842;BME280;62184;52.006;5.924;2023-08-01T11:05:38;99164.34;;;28.46;53.20
73842;BME280;62184;52.006;5.924;2023-08-01T11:08:04;99169.59;;;28.62;51.17
73842;BME280;62184;52.006;5.924;2023-08-01T11:10:32;99149.97;;;28.86;50.14
73842;BME280;62184;52.006;5.924;2023-08-01T11:12:59;99159.28;;;29.06;52.44
73842;BME280;62184;52.006;5.924;2023-08-01T11:15:26;99160.25;;;29.20;48.74
73842;BME280;62184;52.006;5.924;2023-08-01T11:17:54;99162.53;;;29.16;48.82
73842;BME280;62184;52.006;5.924;2023-08-01T11:20:24;99160.06;;;29.00;44.53
73842;BME280;62184;52.006;5.924;2023-08-01T11:22:53;99170.94;;;29.08;50.57
73842;BME280;62184;52.006;5.924;2023-08-01T11:25:32;99172.34;;;29.26;50.25
73842;BME280;62184;52.006;5.924;2023-08-01T11:28:02;99175.16;;;29.32;45.41
73842;BME280;62184;52.006;5.924;2023-08-01T11:30:31;99179.94;;;29.45;48.25
73842;BME280;62184;52.006;5.924;2023-08-01T11:32:58;99178.16;;;29.59;47.40
73842;BME280;62184;52.006;5.924;2023-08-01T11:35:28;99179.88;;;29.66;48.60
73842;BME280;62184;52.006;5.924;2023-08-01T11:37:55;99186.59;;;29.57;47.72
73842;BME280;62184;52.006;5.924;2023-08-01T11:40:23;99189.00;;;29.67;46.88
73842;BME280;62184;52.006;5.924;2023-08-01T11:42:50;99190.44;;;29.97;49.62
73842;BME280;62184;52.006;5.924;2023-08-01T11:45:17;99187.28;;;29.93;44.46
73842;BME280;62184;52.006;5.924;2023-08-01T11:47:47;99202.94;;;29.93;44.16
73842;BME280;62184;52.006;5.924;2023-08-01T11:50:14;99197.16;;;30.16;47.34
73842;BME280;62184;52.006;5.924;2023-08-01T11:52:49;99193.56;;;30.15;40.50
73842;BME280;62184;52.006;5.924;2023-08-01T11:55:20;99209.53;;;29.99;48.06
73842;BME280;62184;52.006;5.924;2023-08-01T11:57:57;99203.38;;;29.97;40.82
73842;BME280;62184;52.006;5.924;2023-08-01T12:00:25;99205.59;;;30.08;43.92
73842;BME280;62184;52.006;5.924;2023-08-01T12:03:03;99207.59;;;30.20;44.16
73842;BME280;62184;52.006;5.924;2023-08-01T12:05:30;99204.88;;;30.34;41.53
73842;BME280;62184;52.006;5.924;2023-08-01T12:08:07;99207.75;;;30.60;45.64
73842;BME280;62184;52.006;5.924;2023-08-01T12:10:37;99204.44;;;30.84;39.29
73842;BME280;62184;52.006;5.924;2023-08-01T12:13:04;99220.19;;;30.49;38.95
73842;BME280;62184;52.006;5.924;2023-08-01T12:15:30;99222.16;;;30.14;48.29
73842;BME280;62184;52.006;5.924;2023-08-01T12:17:57;99218.97;;;29.83;38.76
73842;BME280;62184;52.006;5.924;2023-08-01T12:20:23;99225.44;;;29.47;46.58
73842;BME280;62184;52.006;5.924;2023-08-01T12:22:50;99221.81;;;29.19;46.81
73842;BME280;62184;52.006;5.924;2023-08-01T12:25:19;99234.56;;;29.05;46.49
73842;BME280;62184;52.006;5.924;2023-08-01T12:27:45;99234.09;;;29.02;49.30
73842;BME280;62184;52.006;5.924;2023-08-01T12:30:12;99250.63;;;28.87;47.52
73842;BME280;62184;52.006;5.924;2023-08-01T12:32:38;99240.56;;;28.58;46.84
73842;BME280;62184;52.006;5.924;2023-08-01T12:35:05;99240.56;;;28.58;48.47
73842;BME280;62184;52.006;5.924;2023-08-01T12:37:32;99250.53;;;28.45;43.80
73842;BME280;62184;52.006;5.924;2023-08-01T12:39:59;99263.28;;;28.23;45.05
73842;BME280;62184;52.006;5.924;2023-08-01T12:42:28;99257.81;;;28.08;49.04
73842;BME280;62184;52.006;5.924;2023-08-01T12:44:54;99255.34;;;27.98;45.40
73842;BME280;62184;52.006;5.924;2023-08-01T12:47:20;99250.31;;;28.02;49.56
73842;BME280;62184;52.006;5.924;2023-08-01T12:49:47;99260.91;;;28.05;47.24
73842;BME280;62184;52.006;5.924;2023-08-01T12:52:22;99263.56;;;28.13;55.33
73842;BME280;62184;52.006;5.924;2023-08-01T12:54:49;99262.91;;;28.26;49.82
73842;BME280;62184;52.006;5.924;2023-08-01T12:57:15;99260.06;;;28.63;49.04
73842;BME280;62184;52.006;5.924;2023-08-01T12:59:44;99258.06;;;29.08;48.04
73842;BME280;62184;52.006;5.924;2023-08-01T13:02:12;99260.47;;;29.39;47.30